Time;durP1;ratioP1;P1;durP2;ratioP2;P2;SDS_P1;SDS_P2;PMS_P1;PMS_P2;Temp;Humidity;BMP_temperature;BMP_pressure;BME280_temperature;BME280_humidity;BME280_pressure;Samples;Min_cycle;Max_cycle;Signal;HPM_P1;HPM_P2
2023/12/12 00:00:44;;;;;;;22.10;4.18;;;;;;;;;;7388523;19;20010;-75
2023/12/12 00:03:10;;;;;;;18.27;4.18;;;;;;;;;;7363320;19;20448;-75
2023/12/12 00:05:35;;;;;;;18.70;3.90;;;;;;;;;;7365038;19;20003;-75
2023/12/12 00:08:00;;;;;;;22.92;4.50;;;;;;;;;;7365820;19;20357;-75
2023/12/12 00:10:26;;;;;;;23.27;3.80;;;;;;;;;;7366685;19;20010;-75
2023/12/12 00:12:52;;;;;;;18.98;3.67;;;;;;;;;;7365181;19;20002;-75
2023/12/12 00:15:18;;;;;;;19.92;4.10;;;;;;;;;;7385561;19;20828;-75
2023/12/12 00:17:43;;;;;;;21.63;4.15;;;;;;;;;;7361563;19;20010;-75
2023/12/12 00:20:09;;;;;;;22.15;3.90;;;;;;;;;;7363563;19;20011;-75
2023/12/12 00:22:36;;;;;;;18.60;3.72;;;;;;;;;;7362187;19;20026;-75
2023/12/12 00:25:01;;;;;;;20.55;4.38;;;;;;;;;;7362383;19;20384;-75
2023/12/12 00:27:26;;;;;;;31.50;4.80;;;;;;;;;;7384117;19;20005;-74
2023/12/12 00:29:52;;;;;;;14.77;3.63;;;;;;;;;;7363317;19;20003;-74
2023/12/12 00:32:17;;;;;;;25.67;5.32;;;;;;;;;;7363133;19;20017;-74
2023/12/12 00:34:42;;;;;;;21.95;4.45;;;;;;;;;;7362886;19;20007;-75
2023/12/12 00:37:08;;;;;;;28.45;4.95;;;;;;;;;;7363768;19;20014;-75
2023/12/12 00:39:39;;;;;;;22.33;4.25;;;;;;;;;;7388240;19;20007;-75
2023/12/12 00:42:05;;;;;;;22.23;4.25;;;;;;;;;;7364363;19;20018;-75
2023/12/12 00:44:31;;;;;;;25.75;4.07;;;;;;;;;;7365265;19;20417;-75
2023/12/12 00:46:56;;;;;;;16.23;3.83;;;;;;;;;;7365397;19;20504;-75
2023/12/12 00:49:21;;;;;;;21.70;3.50;;;;;;;;;;7367918;19;20017;-75
2023/12/12 00:51:46;;;;;;;20.60;3.38;;;;;;;;;;7391146;19;20468;-76
2023/12/12 00:54:12;;;;;;;20.63;3.80;;;;;;;;;;7378763;19;20003;-75
2023/12/12 00:56:38;;;;;;;31.25;4.38;;;;;;;;;;7368441;19;20031;-75
2023/12/12 00:59:03;;;;;;;22.92;3.88;;;;;;;;;;7366565;19;20818;-75
2023/12/12 01:01:29;;;;;;;23.48;4.30;;;;;;;;;;7365037;19;20022;-75
2023/12/12 01:03:54;;;;;;;27.20;3.80;;;;;;;;;;7363279;19;20007;-75
2023/12/12 01:06:26;;;;;;;18.50;3.42;;;;;;;;;;7385638;19;20460;-75
2023/12/12 01:08:51;;;;;;;24.48;4.47;;;;;;;;;;7364315;19;20010;-75
2023/12/12 01:11:19;;;;;;;23.75;4.65;;;;;;;;;;7365095;19;20424;-75
2023/12/12 01:13:46;;;;;;;20.15;3.65;;;;;;;;;;7371114;19;20078;-75
2023/12/12 01:16:12;;;;;;;16.85;3.15;;;;;;;;;;7370749;19;20014;-75
2023/12/12 01:18:37;;;;;;;18.30;3.05;;;;;;;;;;7395434;19;20041;-75
2023/12/12 01:21:03;;;;;;;22.63;4.07;;;;;;;;;;7372032;19;20054;-75
2023/12/12 01:23:50;;;;;;;21.50;3.75;;;;;;;;;;7370951;19;20006;-75
2023/12/12 01:26:16;;;;;;;18.25;3.50;;;;;;;;;;7370811;19;20014;-75
2023/12/12 01:28:41;;;;;;;26.95;4.65;;;;;;;;;;7372512;19;20010;-75
2023/12/12 01:31:06;;;;;;;22.83;4.47;;;;;;;;;;7372464;19;20764;-75
2023/12/12 01:33:32;;;;;;;22.48;4.03;;;;;;;;;;7391275;19;20125;-75
2023/12/12 01:35:57;;;;;;;23.77;3.58;;;;;;;;;;7370523;19;20010;-75
2023/12/12 01:38:23;;;;;;;20.98;4.15;;;;;;;;;;7370079;19;20014;-75
2023/12/12 01:40:48;;;;;;;18.63;3.47;;;;;;;;;;7371898;19;20380;-75
2023/12/12 01:43:23;;;;;;;23.25;5.00;;;;;;;;;;7368368;19;20031;-75
2023/12/12 01:45:48;;;;;;;21.33;3.88;;;;;;;;;;7371490;19;20007;-75
2023/12/12 01:48:14;;;;;;;19.77;3.97;;;;;;;;;;7392988;19;20019;-75
2023/12/12 01:50:40;;;;;;;19.50;3.60;;;;;;;;;;7370348;19;20122;-75
2023/12/12 01:53:05;;;;;;;23.85;3.67;;;;;;;;;;7369541;19;20020;-75
2023/12/12 01:55:31;;;;;;;19.40;3.22;;;;;;;;;;7370148;19;20081;-75
2023/12/12 01:57:57;;;;;;;24.67;3.75;;;;;;;;;;7371993;19;20358;-76
2023/12/12 02:00:22;;;;;;;21.35;3.80;;;;;;;;;;7393556;19;20010;-75
2023/12/12 02:02:48;;;;;;;17.95;3.42;;;;;;;;;;7368232;19;20017;-75
2023/12/12 02:05:14;;;;;;;22.17;3.55;;;;;;;;;;7371024;19;20785;-75
2023/12/12 02:07:40;;;;;;;24.00;4.88;;;;;;;;;;7369750;19;20006;-75
2023/12/12 02:10:06;;;;;;;24.73;3.63;;;;;;;;;;7370456;19;20015;-75
2023/12/12 02:12:32;;;;;;;20.88;3.15;;;;;;;;;;7390830;19;20031;-75
2023/12/12 02:14:58;;;;;;;14.82;3.58;;;;;;;;;;7369418;19;20006;-75
2023/12/12 02:17:23;;;;;;;19.83;3.80;;;;;;;;;;7366460;19;20006;-75
2023/12/12 02:19:48;;;;;;;18.23;3.45;;;;;;;;;;7367848;19;20039;-75
2023/12/12 02:22:14;;;;;;;20.40;3.85;;;;;;;;;;7367877;19;20006;-77
2023/12/12 02:24:39;;;;;;;17.92;3.70;;;;;;;;;;7389667;19;20014;-75
2023/12/12 02:27:04;;;;;;;17.33;4.35;;;;;;;;;;7368687;19;20018;-75
2023/12/12 02:29:30;;;;;;;25.70;4.55;;;;;;;;;;7369346;19;20401;-75
2023/12/12 02:31:55;;;;;;;22.20;3.75;;;;;;;;;;7368847;19;20111;-75
2023/12/12 02:34:21;;;;;;;21.90;3.67;;;;;;;;;;7372936;19;20007;-75
2023/12/12 02:36:46;;;;;;;19.83;3.72;;;;;;;;;;7397932;19;20003;-75
2023/12/12 02:39:12;;;;;;;25.70;4.35;;;;;;;;;;7377110;19;20079;-75
2023/12/12 02:41:38;;;;;;;21.80;3.47;;;;;;;;;;7370690;19;20003;-75
2023/12/12 02:44:04;;;;;;;24.20;3.90;;;;;;;;;;7369529;19;20050;-75
2023/12/12 02:46:30;;;;;;;19.25;3.75;;;;;;;;;;7368982;19;20101;-75
2023/12/12 02:48:55;;;;;;;18.77;3.88;;;;;;;;;;7369744;19;20068;-75
2023/12/12 02:51:20;;;;;;;19.10;3.80;;;;;;;;;;7390614;19;20002;-75
2023/12/12 02:53:46;;;;;;;21.77;3.55;;;;;;;;;;7366477;19;20039;-75
2023/12/12 02:56:11;;;;;;;18.75;4.75;;;;;;;;;;7368418;19;20014;-75
2023/12/12 02:58:36;;;;;;;25.40;4.55;;;;;;;;;;7368396;19;20015;-75
2023/12/12 03:01:02;;;;;;;19.17;3.53;;;;;;;;;;7367940;19;19998;-75
2023/12/12 03:03:27;;;;;;;23.02;4.07;;;;;;;;;;7389536;19;20020;-75
2023/12/12 03:05:52;;;;;;;18.88;3.58;;;;;;;;;;7367303;19;20399;-75
2023/12/12 03:08:17;;;;;;;20.27;3.72;;;;;;;;;;7367748;19;20013;-75
2023/12/12 03:10:43;;;;;;;19.20;3.72;;;;;;;;;;7368465;19;20020;-75
2023/12/12 03:13:08;;;;;;;20.55;3.75;;;;;;;;;;7367337;19;20484;-75
2023/12/12 03:15:33;;;;;;;18.88;3.65;;;;;;;;;;7389096;19;20010;-75
2023/12/12 03:17:59;;;;;;;17.52;3.55;;;;;;;;;;7368264;19;20018;-75
2023/12/12 03:20:24;;;;;;;17.00;3.38;;;;;;;;;;7367740;19;20006;-75
2023/12/12 03:22:49;;;;;;;27.33;4.07;;;;;;;;;;7366097;19;20010;-75
2023/12/12 03:25:14;;;;;;;24.95;3.55;;;;;;;;;;7367866;19;20482;-75
2023/12/12 03:27:40;;;;;;;22.20;3.95;;;;;;;;;;7389334;19;20022;-75
2023/12/12 03:30:06;;;;;;;26.00;4.35;;;;;;;;;;7366638;19;20022;-75
2023/12/12 03:32:31;;;;;;;23.88;3.33;;;;;;;;;;7367462;19;19998;-75
2023/12/12 03:34:57;;;;;;;23.90;3.70;;;;;;;;;;7369516;19;20350;-75
2023/12/12 03:37:22;;;;;;;17.75;3.25;;;;;;;;;;7367161;19;20026;-75
2023/12/12 03:39:47;;;;;;;19.55;3.50;;;;;;;;;;7377232;19;20378;-75
2023/12/12 03:42:13;;;;;;;13.50;3.28;;;;;;;;;;7382144;19;20030;-75
2023/12/12 03:44:38;;;;;;;20.50;3.47;;;;;;;;;;7367060;19;19998;-75
2023/12/12 03:47:03;;;;;;;19.25;3.78;;;;;;;;;;7366911;19;19998;-76
2023/12/12 03:49:29;;;;;;;18.17;3.70;;;;;;;;;;7367594;19;20010;-76
2023/12/12 03:51:54;;;;;;;15.15;3.42;;;;;;;;;;7367635;19;20074;-76
2023/12/12 03:54:19;;;;;;;20.42;3.78;;;;;;;;;;7387934;19;20812;-76
2023/12/12 03:56:45;;;;;;;16.70;3.40;;;;;;;;;;7366490;19;20022;-76
2023/12/12 03:59:10;;;;;;;21.65;4.28;;;;;;;;;;7368359;19;20010;-76
2023/12/12 04:01:35;;;;;;;22.30;4.43;;;;;;;;;;7373515;19;20483;-76
2023/12/12 04:04:00;;;;;;;20.92;4.10;;;;;;;;;;7372677;19;20362;-76
2023/12/12 04:06:26;;;;;;;22.75;3.85;;;;;;;;;;7394788;19;20002;-76
2023/12/12 04:08:51;;;;;;;17.85;3.22;;;;;;;;;;7374234;19;20007;-76
2023/12/12 04:11:16;;;;;;;19.73;3.80;;;;;;;;;;7369686;19;20323;-75
2023/12/12 04:13:42;;;;;;;20.15;3.47;;;;;;;;;;7366889;19;20000;-76
2023/12/12 04:16:07;;;;;;;18.67;3.88;;;;;;;;;;7367341;19;20361;-76
2023/12/12 04:18:32;;;;;;;20.75;3.55;;;;;;;;;;7389735;19;20002;-76
2023/12/12 04:20:58;;;;;;;14.40;3.00;;;;;;;;;;7375275;19;20011;-75
2023/12/12 04:23:23;;;;;;;19.50;3.83;;;;;;;;;;7379127;19;20002;-75
2023/12/12 04:25:48;;;;;;;18.67;3.80;;;;;;;;;;7383317;19;20003;-76
2023/12/12 04:28:14;;;;;;;16.60;3.45;;;;;;;;;;7379718;19;20369;-75
2023/12/12 04:30:39;;;;;;;18.65;3.70;;;;;;;;;;7389057;19;20381;-75
2023/12/12 04:33:04;;;;;;;20.75;4.10;;;;;;;;;;7360497;19;20006;-75
2023/12/12 04:35:29;;;;;;;19.10;3.45;;;;;;;;;;7362426;19;20009;-76
2023/12/12 04:37:55;;;;;;;19.23;3.80;;;;;;;;;;7363478;19;19998;-76
2023/12/12 04:40:20;;;;;;;21.42;3.65;;;;;;;;;;7366300;19;20049;-76
2023/12/12 04:42:46;;;;;;;22.13;3.75;;;;;;;;;;7385500;19;20007;-76
2023/12/12 04:45:11;;;;;;;19.25;3.33;;;;;;;;;;7365764;19;20002;-75
2023/12/12 04:47:36;;;;;;;20.98;4.07;;;;;;;;;;7362882;19;20011;-75
2023/12/12 04:50:02;;;;;;;22.30;4.25;;;;;;;;;;7365656;19;20025;-75
2023/12/12 04:52:27;;;;;;;15.60;3.55;;;;;;;;;;7365464;19;20106;-75
2023/12/12 04:54:53;;;;;;;20.20;4.10;;;;;;;;;;7364343;19;20011;-75
2023/12/12 04:57:19;;;;;;;24.75;5.00;;;;;;;;;;7385762;19;20090;-76
2023/12/12 04:59:45;;;;;;;25.20;4.28;;;;;;;;;;7363692;19;20007;-75
2023/12/12 05:02:10;;;;;;;16.15;3.55;;;;;;;;;;7365409;19;20010;-75
2023/12/12 05:04:37;;;;;;;20.30;4.03;;;;;;;;;;7369928;19;20011;-75
2023/12/12 05:07:03;;;;;;;24.00;3.63;;;;;;;;;;7365344;19;20002;-75
2023/12/12 05:09:28;;;;;;;19.42;3.67;;;;;;;;;;7386689;19;20296;-75
2023/12/12 05:11:53;;;;;;;15.65;3.47;;;;;;;;;;7364634;19;20026;-75
2023/12/12 05:14:18;;;;;;;15.60;3.60;;;;;;;;;;7363751;19;20023;-75
2023/12/12 05:16:44;;;;;;;18.05;4.63;;;;;;;;;;7364306;19;20022;-75
2023/12/12 05:19:09;;;;;;;22.52;4.78;;;;;;;;;;7363747;19;20032;-75
2023/12/12 05:21:34;;;;;;;60.67;25.92;;;;;;;;;;7383853;19;20804;-75
2023/12/12 05:24:00;;;;;;;40.08;14.95;;;;;;;;;;7361955;19;20034;-75
2023/12/12 05:26:25;;;;;;;42.58;17.35;;;;;;;;;;7360863;19;20006;-75
2023/12/12 05:28:51;;;;;;;33.05;14.55;;;;;;;;;;7361764;19;20055;-75
2023/12/12 05:31:16;;;;;;;36.20;10.73;;;;;;;;;;7362504;19;20011;-75
2023/12/12 05:33:41;;;;;;;24.77;7.30;;;;;;;;;;7380393;19;19999;-75
2023/12/12 05:36:07;;;;;;;16.20;4.75;;;;;;;;;;7363115;19;20015;-75
2023/12/12 05:38:33;;;;;;;19.95;5.78;;;;;;;;;;7365659;19;20007;-75
2023/12/12 05:40:59;;;;;;;25.52;5.25;;;;;;;;;;7367260;19;20011;-75
2023/12/12 05:43:24;;;;;;;13.23;5.20;;;;;;;;;;7365989;19;20508;-75
2023/12/12 05:45:50;;;;;;;22.38;4.80;;;;;;;;;;7365466;19;20003;-75
2023/12/12 05:48:16;;;;;;;22.25;4.13;;;;;;;;;;7387257;19;20125;-75
2023/12/12 05:50:41;;;;;;;19.20;4.03;;;;;;;;;;7363568;19;20007;-75
2023/12/12 05:53:07;;;;;;;17.80;4.00;;;;;;;;;;7362569;19;20010;-75
2023/12/12 05:55:32;;;;;;;23.50;5.30;;;;;;;;;;7361258;19;20118;-75
2023/12/12 05:57:58;;;;;;;26.77;3.80;;;;;;;;;;7365091;19;20375;-76
2023/12/12 06:00:23;;;;;;;22.05;5.50;;;;;;;;;;7393078;19;20575;-76
2023/12/12 06:02:48;;;;;;;22.30;7.47;;;;;;;;;;7367165;19;20010;-75
2023/12/12 06:05:14;;;;;;;25.40;9.35;;;;;;;;;;7361596;19;20003;-75
2023/12/12 06:07:41;;;;;;;20.55;5.75;;;;;;;;;;7363272;19;19998;-75
2023/12/12 06:10:08;;;;;;;15.73;4.57;;;;;;;;;;7365326;19;20099;-75
2023/12/12 06:12:36;;;;;;;23.63;5.10;;;;;;;;;;7388281;19;20380;-76
2023/12/12 06:15:02;;;;;;;22.05;5.82;;;;;;;;;;7367592;19;20010;-75
2023/12/12 06:17:28;;;;;;;19.85;4.70;;;;;;;;;;7359031;19;20010;-74
2023/12/12 06:19:53;;;;;;;21.40;4.80;;;;;;;;;;7366315;19;20010;-75
2023/12/12 06:22:18;;;;;;;23.33;4.45;;;;;;;;;;7367923;19;20014;-75
2023/12/12 06:24:45;;;;;;;23.02;4.13;;;;;;;;;;7391640;19;20036;-75
2023/12/12 06:27:10;;;;;;;23.55;4.93;;;;;;;;;;7367401;19;20468;-75
2023/12/12 06:29:35;;;;;;;28.95;5.60;;;;;;;;;;7369063;19;20013;-75
2023/12/12 06:32:01;;;;;;;22.48;4.32;;;;;;;;;;7368069;19;20911;-75
2023/12/12 06:34:27;;;;;;;16.35;4.30;;;;;;;;;;7367290;19;20085;-75
2023/12/12 06:36:52;;;;;;;20.30;5.45;;;;;;;;;;7367382;19;20626;-75
2023/12/12 06:39:18;;;;;;;25.83;5.20;;;;;;;;;;7389484;19;19999;-75
2023/12/12 06:41:43;;;;;;;29.42;6.35;;;;;;;;;;7366337;19;20006;-75
2023/12/12 06:44:08;;;;;;;21.83;5.40;;;;;;;;;;7370867;19;20091;-76
2023/12/12 06:46:34;;;;;;;28.33;4.95;;;;;;;;;;7369585;19;20015;-75
2023/12/12 06:48:59;;;;;;;21.80;4.43;;;;;;;;;;7369556;19;20480;-75
2023/12/12 06:51:24;;;;;;;16.75;4.68;;;;;;;;;;7389479;19;20011;-75
2023/12/12 06:53:52;;;;;;;20.67;5.20;;;;;;;;;;7369699;19;20070;-75
2023/12/12 06:56:19;;;;;;;24.80;5.63;;;;;;;;;;7373674;19;20003;-75
2023/12/12 06:58:44;;;;;;;23.58;5.10;;;;;;;;;;7373222;19;20010;-75
2023/12/12 07:01:10;;;;;;;30.73;6.18;;;;;;;;;;7370845;19;20002;-75
2023/12/12 07:03:36;;;;;;;31.65;5.95;;;;;;;;;;7388944;19;20818;-75
2023/12/12 07:06:02;;;;;;;24.60;5.88;;;;;;;;;;7361329;19;20025;-73
2023/12/12 07:08:28;;;;;;;25.92;6.25;;;;;;;;;;7367876;19;20014;-73
2023/12/12 07:10:53;;;;;;;31.75;6.32;;;;;;;;;;7368373;19;20056;-74
2023/12/12 07:13:19;;;;;;;24.10;5.93;;;;;;;;;;7368667;19;20010;-75
2023/12/12 07:15:44;;;;;;;28.17;6.63;;;;;;;;;;7388663;19;20014;-74
2023/12/12 07:18:14;;;;;;;23.20;5.88;;;;;;;;;;7373843;19;20363;-74
2023/12/12 07:20:41;;;;;;;26.05;6.18;;;;;;;;;;7378509;19;20006;-73
2023/12/12 07:23:06;;;;;;;34.17;6.32;;;;;;;;;;7382959;19;20048;-74
2023/12/12 07:25:32;;;;;;;25.08;6.43;;;;;;;;;;7387492;19;20010;-74
2023/12/12 07:27:58;;;;;;;27.48;5.80;;;;;;;;;;7394711;19;20041;-76
2023/12/12 07:30:23;;;;;;;28.70;6.70;;;;;;;;;;7412722;19;19998;-74
2023/12/12 07:32:48;;;;;;;21.67;5.72;;;;;;;;;;7385212;19;20010;-74
2023/12/12 07:35:14;;;;;;;30.45;6.43;;;;;;;;;;7381139;19;20026;-76
2023/12/12 07:37:39;;;;;;;18.88;5.80;;;;;;;;;;7378395;19;20010;-76
2023/12/12 07:40:06;;;;;;;33.08;6.80;;;;;;;;;;7389424;19;20015;-74
2023/12/12 07:42:31;;;;;;;22.13;5.68;;;;;;;;;;7405492;19;20006;-74
2023/12/12 07:44:57;;;;;;;20.77;6.57;;;;;;;;;;7384480;19;20011;-76
2023/12/12 07:47:22;;;;;;;28.27;6.50;;;;;;;;;;7377930;19;20047;-75
2023/12/12 07:49:48;;;;;;;30.05;7.00;;;;;;;;;;7368917;19;20051;-74
2023/12/12 07:52:14;;;;;;;29.80;7.40;;;;;;;;;;7367934;19;20118;-74
2023/12/12 07:54:41;;;;;;;28.45;7.97;;;;;;;;;;7388067;19;19999;-75
2023/12/12 07:57:06;;;;;;;28.40;7.78;;;;;;;;;;7366555;19;20046;-74
2023/12/12 07:59:31;;;;;;;33.80;7.50;;;;;;;;;;7371510;19;20010;-74
2023/12/12 08:01:57;;;;;;;33.40;7.55;;;;;;;;;;7365315;19;20038;-75
2023/12/12 08:04:22;;;;;;;32.30;8.02;;;;;;;;;;7365307;19;20013;-74
2023/12/12 08:06:47;;;;;;;33.10;7.57;;;;;;;;;;7382613;19;19999;-76
2023/12/12 08:09:13;;;;;;;27.63;7.07;;;;;;;;;;7387386;19;20012;-75
2023/12/12 08:11:39;;;;;;;38.97;8.13;;;;;;;;;;7367664;19;20007;-75
2023/12/12 08:14:05;;;;;;;24.85;7.30;;;;;;;;;;7364296;19;20512;-75
2023/12/12 08:16:31;;;;;;;32.53;7.55;;;;;;;;;;7364875;19;20010;-74
2023/12/12 08:18:56;;;;;;;28.65;7.60;;;;;;;;;;7365489;19;20019;-75
2023/12/12 08:21:21;;;;;;;26.75;7.43;;;;;;;;;;7386865;19;20472;-75
2023/12/12 08:23:48;;;;;;;28.52;7.38;;;;;;;;;;7362885;19;20002;-76
2023/12/12 08:26:14;;;;;;;33.05;7.18;;;;;;;;;;7363529;19;20080;-74
2023/12/12 08:28:39;;;;;;;29.48;7.97;;;;;;;;;;7364998;19;20010;-74
2023/12/12 08:31:05;;;;;;;24.95;7.72;;;;;;;;;;7364644;19;20035;-75
2023/12/12 08:33:31;;;;;;;31.08;8.15;;;;;;;;;;7384907;19;20005;-75
2023/12/12 08:35:57;;;;;;;30.90;8.20;;;;;;;;;;7362974;19;20038;-75
2023/12/12 08:38:23;;;;;;;32.45;8.05;;;;;;;;;;7364472;19;20021;-76
2023/12/12 08:40:48;;;;;;;25.58;7.70;;;;;;;;;;7364173;19;20385;-76
2023/12/12 08:43:14;;;;;;;23.17;7.55;;;;;;;;;;7363005;19;20599;-76
2023/12/12 08:45:39;;;;;;;25.20;7.32;;;;;;;;;;7385059;19;20026;-76
2023/12/12 08:48:05;;;;;;;26.13;7.32;;;;;;;;;;7364414;19;20054;-75
2023/12/12 08:50:30;;;;;;;28.08;7.95;;;;;;;;;;7364843;19;20078;-74
2023/12/12 08:52:55;;;;;;;37.00;7.75;;;;;;;;;;7363900;19;20009;-75
2023/12/12 08:55:21;;;;;;;23.83;6.72;;;;;;;;;;7364072;19;20101;-75
2023/12/12 08:57:47;;;;;;;28.58;7.60;;;;;;;;;;7386144;19;20636;-76
2023/12/12 09:00:12;;;;;;;31.92;7.28;;;;;;;;;;7367049;19;20607;-75
2023/12/12 09:02:39;;;;;;;31.13;7.28;;;;;;;;;;7374160;19;20033;-75
2023/12/12 09:05:06;;;;;;;24.13;6.45;;;;;;;;;;7398849;19;19987;-76
2023/12/12 09:07:32;;;;;;;72.85;30.70;;;;;;;;;;7387893;19;20017;-76
2023/12/12 09:09:58;;;;;;;40.78;17.65;;;;;;;;;;7368189;19;20074;-76
2023/12/12 09:12:24;;;;;;;25.00;6.90;;;;;;;;;;7387640;19;20006;-76
2023/12/12 09:14:49;;;;;;;23.27;7.35;;;;;;;;;;7376627;19;20030;-76
2023/12/12 09:17:15;;;;;;;37.25;7.55;;;;;;;;;;7378598;19;19998;-76
2023/12/12 09:19:40;;;;;;;29.80;8.13;;;;;;;;;;7377444;19;20014;-77
2023/12/12 09:22:05;;;;;;;27.60;7.15;;;;;;;;;;7370216;19;20010;-76
2023/12/12 09:24:33;;;;;;;33.63;7.07;;;;;;;;;;7383238;19;20647;-74
2023/12/12 09:26:58;;;;;;;25.77;6.85;;;;;;;;;;7365387;19;20002;-74
2023/12/12 09:29:24;;;;;;;23.55;7.03;;;;;;;;;;7366290;19;20050;-75
2023/12/12 09:31:49;;;;;;;21.40;6.55;;;;;;;;;;7367572;19;20010;-76
2023/12/12 09:34:14;;;;;;;26.83;7.43;;;;;;;;;;7369700;19;20105;-75
2023/12/12 09:36:40;;;;;;;23.02;6.75;;;;;;;;;;7393755;19;19999;-75
2023/12/12 09:39:07;;;;;;;23.67;7.22;;;;;;;;;;7370340;19;20360;-74
2023/12/12 09:41:32;;;;;;;23.90;7.18;;;;;;;;;;7368263;19;20014;-74
2023/12/12 09:44:00;;;;;;;30.00;8.07;;;;;;;;;;7367571;19;20045;-74
2023/12/12 09:46:26;;;;;;;23.33;7.25;;;;;;;;;;7368510;19;20030;-75
2023/12/12 09:48:54;;;;;;;23.10;7.28;;;;;;;;;;7370906;19;20007;-74
2023/12/12 09:51:21;;;;;;;34.90;7.63;;;;;;;;;;7390905;19;20633;-74
2023/12/12 09:53:47;;;;;;;27.02;7.28;;;;;;;;;;7367508;19;20021;-75
2023/12/12 09:56:16;;;;;;;24.55;7.97;;;;;;;;;;7371209;19;20137;-74
2023/12/12 09:58:47;;;;;;;26.65;7.38;;;;;;;;;;7371053;19;20041;-75
2023/12/12 10:01:14;;;;;;;23.10;7.10;;;;;;;;;;7370430;19;20829;-74
2023/12/12 10:03:40;;;;;;;22.60;6.55;;;;;;;;;;7390400;19;20692;-75
2023/12/12 10:06:08;;;;;;;22.70;6.93;;;;;;;;;;7368715;19;20066;-74
2023/12/12 10:08:38;;;;;;;32.75;7.07;;;;;;;;;;7370092;19;20010;-75
2023/12/12 10:11:08;;;;;;;18.15;6.45;;;;;;;;;;7368839;19;20290;-73
2023/12/12 10:13:56;;;;;;;23.67;6.88;;;;;;;;;;7368653;19;20078;-76
2023/12/12 10:16:22;;;;;;;22.10;6.78;;;;;;;;;;7368748;19;20006;-77
2023/12/12 10:18:49;;;;;;;22.58;7.05;;;;;;;;;;7381737;19;20031;-75
2023/12/12 10:21:15;;;;;;;23.23;7.40;;;;;;;;;;7390801;19;20010;-75
2023/12/12 10:23:51;;;;;;;30.60;8.13;;;;;;;;;;7367831;19;20015;-75
2023/12/12 10:26:29;;;;;;;21.58;7.32;;;;;;;;;;7368293;19;20035;-74
2023/12/12 10:28:55;;;;;;;28.27;7.13;;;;;;;;;;7370545;19;20007;-75
2023/12/12 10:31:21;;;;;;;23.98;8.18;;;;;;;;;;7371897;19;20006;-76
2023/12/12 10:33:47;;;;;;;22.67;7.30;;;;;;;;;;7395384;19;20406;-76
2023/12/12 10:36:12;;;;;;;23.38;7.63;;;;;;;;;;7376084;19;20023;-77
2023/12/12 10:38:38;;;;;;;29.05;8.13;;;;;;;;;;7376413;19;20007;-77
2023/12/12 10:41:14;;;;;;;26.70;8.18;;;;;;;;;;7376529;19;20011;-77
2023/12/12 10:43:41;;;;;;;21.05;7.38;;;;;;;;;;7375799;19;20660;-75
2023/12/12 10:46:14;;;;;;;24.52;8.32;;;;;;;;;;7368291;19;22991;-76
2023/12/12 10:48:44;;;;;;;23.88;7.47;;;;;;;;;;7389608;19;20010;-76
2023/12/12 10:51:11;;;;;;;51.17;19.23;;;;;;;;;;7369603;19;20008;-76
2023/12/12 10:53:37;;;;;;;34.05;12.50;;;;;;;;;;7366467;19;20010;-76
2023/12/12 10:56:03;;;;;;;24.30;8.88;;;;;;;;;;7368104;19;20122;-76
2023/12/12 10:58:31;;;;;;;23.58;7.97;;;;;;;;;;7366846;19;20799;-76
2023/12/12 11:00:58;;;;;;;31.20;9.07;;;;;;;;;;7366410;19;20340;-78
2023/12/12 11:03:23;;;;;;;24.75;8.32;;;;;;;;;;7378477;19;20003;-77
2023/12/12 11:05:50;;;;;;;28.00;8.25;;;;;;;;;;7367950;19;20475;-77
2023/12/12 11:08:15;;;;;;;23.50;9.15;;;;;;;;;;7370117;19;20006;-77
2023/12/12 11:10:40;;;;;;;25.85;9.52;;;;;;;;;;7370283;19;20007;-77
2023/12/12 11:13:07;;;;;;;27.58;9.15;;;;;;;;;;7369294;19;21970;-77
2023/12/12 11:15:34;;;;;;;29.77;10.13;;;;;;;;;;7393843;19;20002;-78
2023/12/12 11:17:59;;;;;;;30.05;10.20;;;;;;;;;;7376435;19;20074;-77
2023/12/12 11:20:25;;;;;;;26.30;9.60;;;;;;;;;;7368982;19;20007;-77
2023/12/12 11:22:51;;;;;;;34.70;10.30;;;;;;;;;;7363161;19;20019;-77
2023/12/12 11:25:19;;;;;;;24.67;10.35;;;;;;;;;;7368767;19;20007;-78
2023/12/12 11:27:52;;;;;;;22.90;10.32;;;;;;;;;;7389052;19;20014;-77
2023/12/12 11:30:20;;;;;;;34.38;12.93;;;;;;;;;;7366131;19;20479;-76
2023/12/12 11:32:46;;;;;;;32.70;12.93;;;;;;;;;;7372544;19;20596;-79
2023/12/12 11:35:29;;;;;;;31.63;12.52;;;;;;;;;;7370243;19;20111;-77
2023/12/12 11:37:56;;;;;;;31.67;10.60;;;;;;;;;;7369307;19;20010;-77
2023/12/12 11:40:25;;;;;;;26.67;10.32;;;;;;;;;;7368137;19;20019;-77
2023/12/12 11:42:51;;;;;;;31.67;11.50;;;;;;;;;;7366929;19;20374;-77
2023/12/12 11:45:33;;;;;;;29.13;11.77;;;;;;;;;;7389159;19;20002;-77
2023/12/12 11:48:00;;;;;;;28.05;12.30;;;;;;;;;;7367763;19;20115;-77
2023/12/12 11:50:26;;;;;;;35.72;13.93;;;;;;;;;;7368448;19;20012;-77
2023/12/12 11:52:51;;;;;;;33.25;13.20;;;;;;;;;;7371065;19;20074;-77
2023/12/12 11:55:34;;;;;;;30.25;13.23;;;;;;;;;;7369640;19;20007;-79
2023/12/12 11:58:01;;;;;;;35.17;13.52;;;;;;;;;;7376111;19;20014;-79
2023/12/12 12:00:34;;;;;;;31.70;13.05;;;;;;;;;;7397378;19;20074;-79
2023/12/12 12:03:00;;;;;;;35.50;13.77;;;;;;;;;;7370381;19;20013;-77
2023/12/12 12:05:26;;;;;;;29.90;13.57;;;;;;;;;;7368123;19;20410;-78
2023/12/12 12:07:52;;;;;;;34.40;13.98;;;;;;;;;;7368822;19;20054;-77
2023/12/12 12:10:18;;;;;;;32.65;14.73;;;;;;;;;;7368252;19;20787;-78
2023/12/12 12:12:57;;;;;;;43.30;18.75;;;;;;;;;;7391589;19;20019;-78
2023/12/12 12:15:24;;;;;;;44.38;15.77;;;;;;;;;;7378979;19;20021;-78
2023/12/12 12:17:49;;;;;;;46.55;15.60;;;;;;;;;;7390725;19;20014;-78
2023/12/12 12:20:15;;;;;;;42.88;16.77;;;;;;;;;;7389724;19;20014;-77
2023/12/12 12:22:40;;;;;;;37.67;16.38;;;;;;;;;;7387281;19;20018;-78
2023/12/12 12:25:06;;;;;;;36.60;14.55;;;;;;;;;;7379455;19;20003;-78
2023/12/12 12:28:08;;;;;;;45.08;14.93;;;;;;;;;;7388579;19;20102;-77
2023/12/12 12:30:46;;;;;;;39.55;14.02;;;;;;;;;;7364520;19;20039;-76
2023/12/12 12:33:13;;;;;;;34.72;14.05;;;;;;;;;;7365970;19;20039;-77
2023/12/12 12:35:50;;;;;;;36.58;15.50;;;;;;;;;;7364887;19;20002;-77
2023/12/12 12:38:29;;;;;;;38.17;14.80;;;;;;;;;;7366227;19;20479;-77
2023/12/12 12:40:54;;;;;;;34.47;13.05;;;;;;;;;;7366703;19;20334;-77
2023/12/12 12:43:22;;;;;;;29.92;13.85;;;;;;;;;;7365745;19;20030;-76
2023/12/12 12:45:48;;;;;;;29.05;13.32;;;;;;;;;;7372454;19;20010;-75
2023/12/12 12:48:14;;;;;;;36.22;14.80;;;;;;;;;;7393408;19;19995;-77
2023/12/12 12:50:48;;;;;;;30.65;13.68;;;;;;;;;;7367729;19;20036;-76
2023/12/12 12:53:14;;;;;;;28.23;13.60;;;;;;;;;;7373011;19;20024;-74
2023/12/12 12:55:42;;;;;;;35.45;14.13;;;;;;;;;;7365601;19;20002;-75
2023/12/12 12:58:09;;;;;;;42.15;19.98;;;;;;;;;;7365109;19;20368;-75
2023/12/12 13:00:34;;;;;;;35.28;13.95;;;;;;;;;;7387769;19;20009;-75
2023/12/12 13:02:59;;;;;;;29.08;12.98;;;;;;;;;;7362264;19;20015;-75
2023/12/12 13:05:28;;;;;;;27.85;13.70;;;;;;;;;;7364371;19;20784;-76
2023/12/12 13:07:53;;;;;;;31.95;12.73;;;;;;;;;;7361894;19;20049;-76
2023/12/12 13:10:19;;;;;;;27.63;11.52;;;;;;;;;;7364192;19;20018;-76
2023/12/12 13:12:44;;;;;;;30.42;12.15;;;;;;;;;;7384628;19;20014;-77
2023/12/12 13:15:10;;;;;;;31.77;13.30;;;;;;;;;;7362481;19;20047;-76
2023/12/12 13:17:36;;;;;;;30.33;12.27;;;;;;;;;;7361586;19;20011;-76
2023/12/12 13:20:11;;;;;;;23.10;11.15;;;;;;;;;;7364166;19;20041;-77
2023/12/12 13:22:43;;;;;;;31.20;12.13;;;;;;;;;;7363315;19;20011;-75
2023/12/12 13:25:10;;;;;;;27.30;11.60;;;;;;;;;;7364616;19;22890;-76
2023/12/12 13:27:36;;;;;;;26.23;12.05;;;;;;;;;;7385733;19;20077;-76
2023/12/12 13:30:05;;;;;;;26.88;12.05;;;;;;;;;;7363356;19;20010;-75
2023/12/12 13:32:33;;;;;;;27.77;12.52;;;;;;;;;;7362708;19;20053;-75
2023/12/12 13:34:59;;;;;;;39.88;17.38;;;;;;;;;;7363115;19;20017;-75
2023/12/12 13:37:24;;;;;;;30.52;13.57;;;;;;;;;;7363357;19;20003;-75
2023/12/12 13:39:50;;;;;;;29.52;13.13;;;;;;;;;;7363201;19;20368;-75
2023/12/12 13:42:15;;;;;;;36.40;14.88;;;;;;;;;;7383209;19;20026;-76
2023/12/12 13:44:41;;;;;;;29.67;13.70;;;;;;;;;;7362941;19;20017;-76
2023/12/12 13:47:06;;;;;;;27.08;13.40;;;;;;;;;;7361291;19;20042;-74
2023/12/12 13:49:32;;;;;;;32.40;13.90;;;;;;;;;;7364030;19;20011;-76
2023/12/12 13:51:58;;;;;;;31.48;13.25;;;;;;;;;;7364175;19;20003;-76
2023/12/12 13:54:24;;;;;;;26.73;13.30;;;;;;;;;;7383499;19;20010;-76
2023/12/12 13:56:50;;;;;;;28.83;13.65;;;;;;;;;;7362173;19;20014;-75
2023/12/12 13:59:16;;;;;;;28.73;13.88;;;;;;;;;;7364378;19;20110;-76
2023/12/12 14:01:41;;;;;;;32.72;14.02;;;;;;;;;;7364587;19;20044;-75
2023/12/12 14:04:06;;;;;;;28.38;12.73;;;;;;;;;;7363986;19;20022;-75
2023/12/12 14:06:32;;;;;;;27.75;12.43;;;;;;;;;;7386123;19;20002;-76
2023/12/12 14:08:57;;;;;;;30.55;12.40;;;;;;;;;;7366484;19;20003;-78
2023/12/12 14:11:24;;;;;;;26.15;11.82;;;;;;;;;;7362940;19;20002;-75
2023/12/12 14:13:51;;;;;;;25.00;11.15;;;;;;;;;;7359971;19;20007;-75
2023/12/12 14:16:16;;;;;;;23.38;11.25;;;;;;;;;;7360383;19;20019;-75
2023/12/12 14:18:41;;;;;;;24.90;11.52;;;;;;;;;;7384815;19;19998;-76
2023/12/12 14:21:09;;;;;;;27.52;12.30;;;;;;;;;;7368172;19;20085;-75